createdAt,value
2018-12-15T00:00:07.339Z,53.03
2018-12-15T00:02:35.556Z,50.87
2018-12-15T00:05:04.022Z,45.93
2018-12-15T00:07:32.233Z,50.10
2018-12-15T00:10:00.454Z,47.80
2018-12-15T00:12:28.694Z,48.50
2018-12-15T00:14:57.079Z,47.37
2018-12-15T00:17:25.335Z,50.53
2018-12-15T00:19:53.744Z,46.47
2018-12-15T00:22:21.941Z,48.20
2018-12-15T00:24:50.153Z,47.73
2018-12-15T00:27:18.486Z,50.33
2018-12-15T00:29:46.715Z,47.03
2018-12-15T00:32:15.098Z,43.53
2018-12-15T00:34:43.321Z,45.47
2018-12-15T00:37:11.505Z,43.90
2018-12-15T00:39:39.733Z,41.03
2018-12-15T00:42:07.921Z,44.77
2018-12-15T00:44:36.149Z,45.47
2018-12-15T00:47:04.477Z,43.40
2018-12-15T00:49:32.779Z,42.53
2018-12-15T00:52:00.973Z,39.77
2018-12-15T00:54:29.201Z,43.97
2018-12-15T00:56:57.389Z,41.07
2018-12-15T00:59:25.634Z,39.43
2018-12-15T01:01:53.905Z,39.63
2018-12-15T01:04:22.165Z,42.00
2018-12-15T01:06:50.490Z,42.90
2018-12-15T01:09:18.694Z,38.57
2018-12-15T01:11:46.938Z,38.10
2018-12-15T01:14:15.123Z,38.23
2018-12-15T01:16:43.377Z,38.67
2018-12-15T01:19:11.553Z,36.37
2018-12-15T01:21:39.761Z,34.40
2018-12-15T01:24:07.945Z,38.30
2018-12-15T01:26:36.145Z,37.87
2018-12-15T01:29:08.288Z,36.33
2018-12-15T01:31:36.515Z,39.03
2018-12-15T01:34:04.717Z,38.13
2018-12-15T01:36:32.917Z,36.97
2018-12-15T01:39:02.188Z,37.60
2018-12-15T01:41:30.404Z,36.90
2018-12-15T01:43:58.633Z,34.30
2018-12-15T01:46:26.846Z,35.20
2018-12-15T01:48:55.239Z,35.30
2018-12-15T01:51:23.567Z,35.40
2018-12-15T01:53:51.779Z,37.33
2018-12-15T01:56:20.145Z,35.77
2018-12-15T01:58:48.348Z,34.47
2018-12-15T02:01:16.650Z,38.43
2018-12-15T02:03:44.941Z,29.67
2018-12-15T02:06:19.641Z,34.27
2018-12-15T02:08:47.900Z,32.57
2018-12-15T02:11:16.337Z,32.00
2018-12-15T02:13:44.624Z,28.90
2018-12-15T02:16:12.821Z,32.67
2018-12-15T02:18:41.069Z,31.27
2018-12-15T02:21:09.255Z,32.47
2018-12-15T02:23:37.482Z,31.70
2018-12-15T02:26:05.777Z,30.70
2018-12-15T02:28:33.997Z,28.93
2018-12-15T02:31:02.216Z,29.93
2018-12-15T02:33:30.418Z,25.50
2018-12-15T02:35:58.610Z,26.13
2018-12-15T02:38:26.862Z,25.57
2018-12-15T02:40:55.060Z,26.27
2018-12-15T02:43:23.272Z,24.23
2018-12-15T02:45:51.460Z,26.93
2018-12-15T02:48:19.673Z,25.23
2018-12-15T02:50:47.870Z,24.67
2018-12-15T02:53:16.081Z,22.80
2018-12-15T02:55:44.368Z,22.97
2018-12-15T02:58:12.624Z,23.40
2018-12-15T03:00:40.856Z,21.60
2018-12-15T03:03:09.080Z,20.53
2018-12-15T03:05:37.312Z,20.40
2018-12-15T03:08:05.642Z,20.60
2018-12-15T03:10:33.937Z,20.63
2018-12-15T03:13:02.157Z,20.87
2018-12-15T03:15:30.388Z,19.27
2018-12-15T03:17:58.614Z,19.70
2018-12-15T03:20:26.912Z,19.50
2018-12-15T03:22:55.149Z,20.20
2018-12-15T03:25:23.503Z,21.20
2018-12-15T03:27:51.745Z,18.13
2018-12-15T03:30:20.039Z,21.07
2018-12-15T03:32:48.247Z,18.00
2018-12-15T03:35:16.458Z,17.83
2018-12-15T03:37:44.692Z,17.53
2018-12-15T03:40:13.273Z,17.23
2018-12-15T03:42:41.486Z,20.77
2018-12-15T03:45:09.805Z,18.07
2018-12-15T03:47:38.023Z,20.07
2018-12-15T03:50:07.006Z,18.90
2018-12-15T03:52:35.220Z,17.57
2018-12-15T03:55:03.493Z,19.90
2018-12-15T03:57:31.703Z,19.50
2018-12-15T03:59:59.919Z,21.67
2018-12-15T04:02:28.117Z,19.03
2018-12-15T04:04:56.585Z,17.87
2018-12-15T04:07:24.793Z,18.77
2018-12-15T04:09:53.001Z,19.80
2018-12-15T04:12:21.209Z,15.77
2018-12-15T04:14:49.462Z,17.57
2018-12-15T04:17:17.665Z,17.77
2018-12-15T04:19:45.903Z,17.37
2018-12-15T04:22:19.276Z,16.50
2018-12-15T04:24:47.633Z,19.43
2018-12-15T04:27:16.095Z,19.60
2018-12-15T04:29:44.395Z,17.53
2018-12-15T04:32:12.594Z,16.17
2018-12-15T04:34:40.882Z,17.40
2018-12-15T04:37:09.100Z,19.77
2018-12-15T04:39:37.330Z,17.83
2018-12-15T04:42:05.782Z,20.00
2018-12-15T04:44:34.000Z,17.73
2018-12-15T04:47:02.469Z,17.07
2018-12-15T04:49:30.706Z,17.57
2018-12-15T04:51:58.901Z,18.03
2018-12-15T04:54:27.141Z,17.37
2018-12-15T04:56:55.346Z,17.40
2018-12-15T04:59:23.538Z,15.90
2018-12-15T05:01:51.742Z,16.83
2018-12-15T05:04:19.997Z,16.77
2018-12-15T05:06:48.303Z,18.97
2018-12-15T05:09:16.506Z,18.60
2018-12-15T05:11:44.708Z,16.67
2018-12-15T05:14:12.933Z,17.13
2018-12-15T05:16:41.230Z,17.17
2018-12-15T05:19:09.437Z,20.40
2018-12-15T05:21:37.669Z,19.10
2018-12-15T05:24:05.890Z,17.97
2018-12-15T05:26:34.121Z,18.70
2018-12-15T05:29:02.331Z,21.63
2018-12-15T05:31:30.609Z,19.23
2018-12-15T05:33:58.816Z,17.93
2018-12-15T05:36:27.029Z,17.90
2018-12-15T05:38:55.282Z,17.27
2018-12-15T05:41:23.481Z,20.13
2018-12-15T05:43:51.669Z,21.10
2018-12-15T05:46:19.985Z,15.73
2018-12-15T05:48:48.202Z,19.13
2018-12-15T05:51:16.404Z,17.90
2018-12-15T05:53:44.677Z,16.97
2018-12-15T05:56:12.970Z,16.07
2018-12-15T05:58:41.189Z,16.90
2018-12-15T06:01:09.430Z,16.93
2018-12-15T06:03:37.625Z,17.50
2018-12-15T06:06:05.861Z,17.47
2018-12-15T06:08:34.084Z,20.53
2018-12-15T06:11:02.280Z,18.43
2018-12-15T06:13:30.508Z,18.37
2018-12-15T06:15:58.692Z,19.33
2018-12-15T06:18:31.680Z,19.47
2018-12-15T06:20:57.337Z,19.33
2018-12-15T06:23:25.556Z,19.80
2018-12-15T06:25:53.789Z,18.10
2018-12-15T06:28:22.081Z,19.77
2018-12-15T06:30:50.273Z,19.97
2018-12-15T06:33:18.485Z,19.13
2018-12-15T06:35:46.668Z,20.53
2018-12-15T06:38:14.881Z,19.87
2018-12-15T06:40:43.085Z,23.83
2018-12-15T06:43:11.300Z,23.97
2018-12-15T06:45:39.512Z,21.90
2018-12-15T06:48:07.808Z,22.83
2018-12-15T06:50:36.008Z,21.13
2018-12-15T06:53:04.217Z,20.13
2018-12-15T06:55:32.409Z,21.67
2018-12-15T06:58:00.624Z,21.53
2018-12-15T07:00:31.165Z,22.50
2018-12-15T07:02:59.517Z,21.73
2018-12-15T07:05:27.853Z,20.37
2018-12-15T07:07:56.160Z,22.37
2018-12-15T07:10:24.353Z,22.73
2018-12-15T07:12:52.586Z,21.47
2018-12-15T07:15:20.826Z,23.80
2018-12-15T07:17:49.043Z,24.37
2018-12-15T07:20:17.337Z,21.23
2018-12-15T07:22:45.533Z,24.23
2018-12-15T07:25:13.825Z,27.40
2018-12-15T07:27:42.093Z,22.40
2018-12-15T07:30:10.457Z,22.47
2018-12-15T07:32:38.648Z,22.03
2018-12-15T07:35:07.014Z,26.60
2018-12-15T07:37:35.217Z,22.93
2018-12-15T07:40:04.125Z,22.53
2018-12-15T07:42:32.357Z,21.87
2018-12-15T07:45:00.581Z,21.97
2018-12-15T07:47:28.796Z,23.30
2018-12-15T07:49:57.055Z,23.13
2018-12-15T07:52:25.268Z,20.37
2018-12-15T07:54:53.577Z,24.07
2018-12-15T07:57:21.773Z,23.73
2018-12-15T07:59:50.797Z,23.43
2018-12-15T08:02:19.159Z,21.87
2018-12-15T08:04:47.365Z,22.47
2018-12-15T08:07:15.693Z,21.00
2018-12-15T08:09:43.993Z,21.63
2018-12-15T08:12:17.550Z,23.40
2018-12-15T08:14:45.863Z,20.53
2018-12-15T08:17:14.077Z,22.77
2018-12-15T08:19:42.389Z,23.37
2018-12-15T08:22:10.638Z,21.80
2018-12-15T08:24:38.916Z,21.33
2018-12-15T08:27:07.178Z,22.67
2018-12-15T08:29:35.465Z,22.37
2018-12-15T08:32:03.765Z,24.70
2018-12-15T08:34:32.177Z,21.93
2018-12-15T08:37:00.640Z,22.67
2018-12-15T08:39:29.031Z,24.70
2018-12-15T08:41:57.349Z,23.60
2018-12-15T08:44:25.724Z,26.80
2018-12-15T08:46:53.961Z,22.93
2018-12-15T08:49:22.148Z,22.97
2018-12-15T08:51:50.373Z,21.90
2018-12-15T08:54:18.579Z,22.07
2018-12-15T08:56:46.883Z,23.00
2018-12-15T08:59:15.089Z,25.07
2018-12-15T09:01:43.318Z,23.83
2018-12-15T09:04:11.581Z,20.87
2018-12-15T09:06:39.832Z,22.57
2018-12-15T09:09:08.097Z,22.00
2018-12-15T09:11:36.342Z,30.07
2018-12-15T09:14:04.620Z,22.80
2018-12-15T09:16:32.808Z,23.63
2018-12-15T09:19:01.109Z,25.37
2018-12-15T09:21:29.634Z,23.97
2018-12-15T09:23:58.036Z,24.33
2018-12-15T09:26:26.312Z,25.43
2018-12-15T09:28:54.529Z,22.77
2018-12-15T09:31:22.742Z,24.27
2018-12-15T09:33:50.976Z,23.00
2018-12-15T09:36:19.184Z,22.93
2018-12-15T09:38:47.389Z,25.67
2018-12-15T09:41:15.597Z,26.00
2018-12-15T09:43:43.900Z,25.10
2018-12-15T09:46:12.281Z,26.03
2018-12-15T09:48:40.573Z,25.70
2018-12-15T09:51:08.813Z,28.37
2018-12-15T09:53:37.114Z,29.07
2018-12-15T09:56:05.477Z,28.97
2018-12-15T09:58:33.690Z,29.83
2018-12-15T10:01:01.887Z,25.10
2018-12-15T10:03:30.164Z,25.67
2018-12-15T10:05:58.354Z,25.27
2018-12-15T10:08:26.582Z,26.07
2018-12-15T10:10:54.821Z,31.60
2018-12-15T10:13:23.033Z,26.23
2018-12-15T10:15:51.236Z,24.03
2018-12-15T10:18:19.507Z,26.23
2018-12-15T10:20:47.698Z,23.77
2018-12-15T10:23:15.893Z,26.60
2018-12-15T10:25:44.092Z,25.80
2018-12-15T10:28:12.296Z,28.67
2018-12-15T10:30:46.006Z,27.23
2018-12-15T10:33:14.197Z,28.03
2018-12-15T10:35:42.409Z,26.20
2018-12-15T10:38:10.721Z,29.43
2018-12-15T10:40:38.921Z,28.20
2018-12-15T10:43:07.173Z,25.70
2018-12-15T10:45:35.373Z,28.23
2018-12-15T10:48:03.648Z,26.87
2018-12-15T10:50:31.957Z,30.00
2018-12-15T10:53:00.186Z,27.70
2018-12-15T10:55:28.417Z,26.27
2018-12-15T10:57:56.617Z,30.67
2018-12-15T11:00:29.152Z,28.23
2018-12-15T11:02:57.457Z,26.03
2018-12-15T11:05:25.777Z,28.70
2018-12-15T11:07:54.017Z,27.37
2018-12-15T11:10:22.306Z,25.63
2018-12-15T11:12:50.505Z,25.23
2018-12-15T11:15:18.722Z,25.77
2018-12-15T11:17:46.909Z,25.53
2018-12-15T11:20:15.180Z,25.13
2018-12-15T11:22:43.373Z,25.93
2018-12-15T11:25:11.701Z,26.33
2018-12-15T11:27:39.896Z,24.67
2018-12-15T11:30:08.313Z,29.87
2018-12-15T11:32:36.612Z,26.47
2018-12-15T11:35:05.210Z,27.70
2018-12-15T11:37:33.420Z,28.83
2018-12-15T11:40:01.690Z,28.47
2018-12-15T11:42:29.916Z,28.67
2018-12-15T11:44:58.240Z,29.63
2018-12-15T11:47:26.458Z,28.27
2018-12-15T11:50:00.006Z,31.37
2018-12-15T11:52:28.269Z,30.83
2018-12-15T11:54:56.456Z,28.63
2018-12-15T11:57:24.685Z,26.63
2018-12-15T11:59:52.929Z,26.87
2018-12-15T12:02:21.223Z,28.40
2018-12-15T12:04:49.437Z,27.37
2018-12-15T12:07:17.664Z,28.13
2018-12-15T12:09:45.873Z,26.53
2018-12-15T12:12:14.165Z,29.97
2018-12-15T12:14:42.477Z,32.73
2018-12-15T12:17:10.683Z,29.67
2018-12-15T12:19:38.902Z,35.57
2018-12-15T12:22:07.178Z,34.00
2018-12-15T12:24:35.392Z,25.97
2018-12-15T12:27:03.748Z,30.43
2018-12-15T12:29:31.941Z,36.27
2018-12-15T12:32:00.198Z,30.07
2018-12-15T12:34:28.407Z,29.53
2018-12-15T12:36:56.653Z,32.90
2018-12-15T12:39:24.862Z,31.03
2018-12-15T12:41:53.084Z,30.93
2018-12-15T12:44:21.330Z,31.93
2018-12-15T12:46:49.562Z,31.40
2018-12-15T12:49:17.763Z,31.67
2018-12-15T12:51:45.979Z,31.37
2018-12-15T12:54:14.240Z,32.43
2018-12-15T12:56:42.473Z,31.37
2018-12-15T12:59:10.692Z,30.00
2018-12-15T13:01:38.968Z,30.63
2018-12-15T13:04:07.176Z,34.67
2018-12-15T13:06:35.376Z,30.00
2018-12-15T13:09:05.937Z,32.10
2018-12-15T13:11:34.153Z,32.73
2018-12-15T13:14:02.513Z,29.90
2018-12-15T13:16:30.725Z,29.40
2018-12-15T13:18:58.936Z,28.63
2018-12-15T13:21:27.180Z,31.57
2018-12-15T13:23:55.445Z,29.03
2018-12-15T13:26:23.734Z,31.90
2018-12-15T13:28:51.961Z,30.37
2018-12-15T13:31:20.299Z,28.97
2018-12-15T13:33:48.613Z,25.80
2018-12-15T13:36:18.633Z,28.60
2018-12-15T13:38:47.025Z,31.73
2018-12-15T13:41:15.233Z,28.63
2018-12-15T13:43:43.508Z,28.77
2018-12-15T13:46:11.858Z,28.53
2018-12-15T13:48:40.101Z,27.73
2018-12-15T13:51:08.395Z,28.90
2018-12-15T13:53:36.670Z,27.50
2018-12-15T13:56:05.019Z,31.00
2018-12-15T13:58:33.252Z,27.90
2018-12-15T14:01:01.439Z,25.83
2018-12-15T14:03:29.671Z,30.17
2018-12-15T14:05:57.873Z,28.50
2018-12-15T14:08:26.149Z,30.20
2018-12-15T14:10:54.349Z,29.50
2018-12-15T14:13:22.603Z,30.70
2018-12-15T14:15:50.944Z,31.80
2018-12-15T14:18:19.153Z,29.83
2018-12-15T14:20:47.474Z,27.47
2018-12-15T14:23:15.758Z,30.70
2018-12-15T14:25:43.978Z,29.80
2018-12-15T14:28:12.160Z,27.67
2018-12-15T14:30:40.373Z,27.07
2018-12-15T14:33:08.575Z,26.67
2018-12-15T14:35:36.824Z,31.53
2018-12-15T14:38:05.049Z,33.33
2018-12-15T14:40:33.280Z,36.20
2018-12-15T14:43:01.489Z,31.00
2018-12-15T14:45:29.813Z,31.63
2018-12-15T14:47:58.012Z,35.60
2018-12-15T14:50:26.261Z,28.37
2018-12-15T14:52:54.469Z,34.07
2018-12-15T14:55:22.744Z,33.07
2018-12-15T14:57:50.958Z,30.73
2018-12-15T15:00:19.168Z,35.17
2018-12-15T15:02:47.555Z,29.87
2018-12-15T15:05:15.871Z,29.63
2018-12-15T15:07:44.093Z,31.60
2018-12-15T15:10:12.370Z,33.27
2018-12-15T15:12:40.613Z,32.37
2018-12-15T15:15:08.965Z,42.20
2018-12-15T15:17:38.449Z,59.37
2018-12-15T15:20:08.953Z,47.23
2018-12-15T15:22:37.173Z,44.47
2018-12-15T15:25:05.777Z,42.43
2018-12-15T15:27:33.986Z,34.47
2018-12-15T15:30:02.328Z,39.80
2018-12-15T15:32:30.612Z,36.57
2018-12-15T15:34:59.710Z,34.50
2018-12-15T15:37:27.980Z,31.90
2018-12-15T15:39:56.197Z,34.93
2018-12-15T15:42:24.561Z,33.33
2018-12-15T15:44:52.826Z,32.87
2018-12-15T15:47:21.048Z,37.27
2018-12-15T15:49:49.228Z,36.83
2018-12-15T15:52:17.487Z,36.53
2018-12-15T15:54:45.914Z,36.87
2018-12-15T15:57:14.106Z,34.93
2018-12-15T15:59:42.361Z,31.83
2018-12-15T16:02:10.710Z,39.30
2018-12-15T16:04:38.913Z,36.03
2018-12-15T16:07:07.265Z,41.50
2018-12-15T16:09:35.533Z,38.73
2018-12-15T16:12:05.195Z,36.37
2018-12-15T16:14:33.493Z,39.77
2018-12-15T16:17:01.718Z,41.60
2018-12-15T16:19:29.932Z,42.23
2018-12-15T16:21:58.238Z,38.63
2018-12-15T16:24:26.447Z,49.63
2018-12-15T16:26:54.987Z,54.00
2018-12-15T16:29:23.268Z,41.90
2018-12-15T16:31:52.383Z,40.53
2018-12-15T16:34:20.577Z,38.90
2018-12-15T16:36:48.932Z,41.10
2018-12-15T16:39:17.219Z,40.23
2018-12-15T16:41:45.618Z,36.73
2018-12-15T16:44:13.817Z,35.93
2018-12-15T16:46:42.109Z,41.07
2018-12-15T16:49:10.421Z,40.03
2018-12-15T16:51:38.648Z,41.03
2018-12-15T16:54:06.885Z,43.13
2018-12-15T16:56:35.114Z,40.57
2018-12-15T16:59:03.452Z,42.63
2018-12-15T17:01:31.855Z,38.77
2018-12-15T17:04:00.305Z,41.00
2018-12-15T17:06:28.550Z,41.10
2018-12-15T17:08:56.754Z,45.33
2018-12-15T17:11:24.946Z,41.87
2018-12-15T17:13:53.163Z,38.70
2018-12-15T17:16:21.366Z,42.00
2018-12-15T17:18:49.589Z,44.97
2018-12-15T17:21:17.906Z,41.53
2018-12-15T17:23:46.250Z,40.57
2018-12-15T17:26:14.568Z,43.43
2018-12-15T17:28:42.861Z,39.10
2018-12-15T17:31:11.134Z,39.97
2018-12-15T17:33:39.422Z,39.27
2018-12-15T17:36:07.708Z,42.73
2018-12-15T17:38:35.917Z,44.93
2018-12-15T17:41:04.233Z,45.27
2018-12-15T17:43:32.444Z,44.10
2018-12-15T17:46:00.653Z,41.90
2018-12-15T17:48:28.867Z,39.97
2018-12-15T17:51:03.050Z,45.17
2018-12-15T17:53:27.582Z,44.57
2018-12-15T17:55:55.796Z,37.10
2018-12-15T17:58:24.037Z,48.10
2018-12-15T18:00:52.351Z,47.03
2018-12-15T18:03:20.628Z,48.33
2018-12-15T18:05:48.841Z,51.10
2018-12-15T18:08:17.153Z,46.30
2018-12-15T18:10:45.437Z,49.13
2018-12-15T18:13:13.657Z,49.00
2018-12-15T18:15:41.871Z,48.50
2018-12-15T18:18:10.110Z,43.07
2018-12-15T18:20:38.385Z,49.17
2018-12-15T18:23:06.749Z,45.00
2018-12-15T18:25:35.034Z,47.70
2018-12-15T18:28:03.377Z,46.83
2018-12-15T18:30:31.642Z,46.23
2018-12-15T18:33:00.052Z,51.27
2018-12-15T18:35:28.267Z,47.13
2018-12-15T18:37:56.593Z,43.77
2018-12-15T18:40:24.899Z,46.73
2018-12-15T18:42:53.209Z,44.77
2018-12-15T18:45:21.488Z,44.10
2018-12-15T18:47:49.763Z,48.60
2018-12-15T18:50:18.026Z,48.20
2018-12-15T18:52:46.257Z,45.80
2018-12-15T18:55:14.586Z,52.03
2018-12-15T18:57:42.909Z,51.37
2018-12-15T19:00:12.062Z,49.03
2018-12-15T19:02:40.292Z,46.70
2018-12-15T19:05:08.733Z,43.80
2018-12-15T19:07:37.032Z,48.57
2018-12-15T19:10:06.206Z,48.33
2018-12-15T19:12:34.737Z,50.30
2018-12-15T19:15:03.043Z,53.17
2018-12-15T19:17:31.272Z,48.70
2018-12-15T19:20:00.518Z,51.47
2018-12-15T19:22:28.859Z,53.97
2018-12-15T19:24:57.212Z,49.80
2018-12-15T19:27:25.635Z,50.33
2018-12-15T19:29:53.857Z,52.47
2018-12-15T19:32:22.405Z,52.40
2018-12-15T19:34:52.489Z,52.13
2018-12-15T19:37:20.977Z,49.67
2018-12-15T19:39:49.360Z,52.13
2018-12-15T19:42:17.571Z,52.67
2018-12-15T19:44:45.776Z,53.67
2018-12-15T19:47:14.001Z,53.90
2018-12-15T19:49:42.216Z,52.83
2018-12-15T19:52:10.533Z,50.60
2018-12-15T19:54:38.758Z,55.50
2018-12-15T19:57:07.014Z,52.70
2018-12-15T19:59:35.281Z,50.30
2018-12-15T20:02:03.636Z,51.90
2018-12-15T20:04:31.885Z,54.07
2018-12-15T20:07:00.142Z,52.03
2018-12-15T20:09:28.682Z,53.57
2018-12-15T20:11:56.944Z,56.43
2018-12-15T20:14:25.166Z,55.43
2018-12-15T20:16:53.407Z,59.17
2018-12-15T20:19:21.609Z,53.27
2018-12-15T20:21:49.863Z,55.97
2018-12-15T20:24:18.159Z,59.23
2018-12-15T20:26:46.797Z,57.30
2018-12-15T20:29:15.306Z,59.77
2018-12-15T20:31:43.493Z,57.93
2018-12-15T20:34:11.805Z,57.20
2018-12-15T20:36:39.997Z,53.53
2018-12-15T20:39:08.301Z,55.10
2018-12-15T20:41:36.520Z,54.67
2018-12-15T20:44:04.885Z,53.40
2018-12-15T20:46:33.196Z,57.83
2018-12-15T20:49:01.499Z,61.07
2018-12-15T20:51:29.775Z,56.83
2018-12-15T20:53:58.226Z,55.87
2018-12-15T20:56:27.015Z,59.37
2018-12-15T20:58:55.248Z,54.23
2018-12-15T21:01:23.574Z,54.43
2018-12-15T21:03:51.881Z,55.83
2018-12-15T21:06:20.349Z,53.00
2018-12-15T21:08:48.596Z,59.27
2018-12-15T21:11:16.903Z,57.00
2018-12-15T21:13:45.265Z,58.60
2018-12-15T21:16:13.634Z,52.87
2018-12-15T21:18:41.946Z,58.03
2018-12-15T21:21:10.259Z,56.00
2018-12-15T21:23:38.578Z,59.30
2018-12-15T21:26:06.839Z,61.37
2018-12-15T21:28:35.183Z,61.27
2018-12-15T21:31:03.549Z,60.43
2018-12-15T21:33:31.778Z,56.07
2018-12-15T21:36:00.036Z,61.50
2018-12-15T21:38:28.345Z,56.97
2018-12-15T21:40:56.656Z,55.10
2018-12-15T21:43:25.101Z,58.00
2018-12-15T21:45:53.313Z,57.33
2018-12-15T21:48:21.512Z,56.63
2018-12-15T21:50:49.710Z,55.37
2018-12-15T21:53:18.025Z,54.27
2018-12-15T21:55:46.360Z,54.50
2018-12-15T21:58:14.654Z,59.93
2018-12-15T22:00:42.865Z,60.57
2018-12-15T22:03:11.085Z,59.37
2018-12-15T22:05:39.394Z,59.77
2018-12-15T22:08:07.609Z,56.97
2018-12-15T22:10:36.206Z,58.63
2018-12-15T22:13:05.012Z,61.33
2018-12-15T22:15:33.228Z,59.27
2018-12-15T22:18:01.432Z,58.43
2018-12-15T22:20:29.882Z,61.43
2018-12-15T22:22:58.085Z,58.17
2018-12-15T22:25:26.301Z,54.93
2018-12-15T22:27:54.482Z,54.80
2018-12-15T22:30:22.689Z,60.17
2018-12-15T22:32:50.902Z,57.30
2018-12-15T22:35:19.132Z,60.33
2018-12-15T22:37:47.401Z,59.73
2018-12-15T22:40:15.613Z,61.37
2018-12-15T22:42:43.791Z,64.23
2018-12-15T22:45:12.108Z,60.03
2018-12-15T22:47:40.449Z,59.50
2018-12-15T22:50:08.963Z,59.70
2018-12-15T22:52:37.212Z,62.93
2018-12-15T22:55:05.761Z,60.73
2018-12-15T22:57:33.984Z,58.27
2018-12-15T23:00:02.257Z,58.30
2018-12-15T23:02:30.539Z,59.13
2018-12-15T23:04:58.822Z,61.53
2018-12-15T23:07:27.121Z,62.83
2018-12-15T23:09:55.416Z,59.87
2018-12-15T23:12:23.632Z,62.23
2018-12-15T23:14:51.928Z,60.43
2018-12-15T23:17:20.212Z,66.00
2018-12-15T23:19:48.420Z,58.40
2018-12-15T23:22:16.616Z,64.43
2018-12-15T23:24:44.869Z,64.37
2018-12-15T23:27:13.275Z,68.63
2018-12-15T23:29:41.486Z,64.00
2018-12-15T23:32:09.708Z,61.00
2018-12-15T23:34:37.913Z,65.17
2018-12-15T23:37:06.216Z,59.43
2018-12-15T23:39:34.429Z,62.70
2018-12-15T23:42:02.749Z,61.63
2018-12-15T23:44:31.035Z,61.33
2018-12-15T23:46:59.254Z,60.07
2018-12-15T23:49:27.542Z,66.47
2018-12-15T23:51:55.760Z,63.20
2018-12-15T23:54:23.953Z,63.07
2018-12-15T23:56:52.241Z,68.27
2018-12-15T23:59:20.460Z,62.23
